sensor_id;sensor_type;location;lat;lon;timestamp;P1;durP1;ratioP1;P2;durP2;ratioP2
8458;SDS011;4266;48.816;9.154;2022-11-20T00:02:13;15.13;;;11.33;;
8458;SDS011;4266;48.816;9.154;2022-11-20T00:04:38;14.47;;;11.30;;
8458;SDS011;4266;48.816;9.154;2022-11-20T00:07:04;20.23;;;11.47;;
8458;SDS011;4266;48.816;9.154;2022-11-20T00:09:30;17.23;;;11.23;;
8458;SDS011;4266;48.816;9.154;2022-11-20T00:11:56;12.83;;;11.13;;
8458;SDS011;4266;48.816;9.154;2022-11-20T00:14:21;14.40;;;11.53;;
8458;SDS011;4266;48.816;9.154;2022-11-20T00:16:47;14.03;;;10.83;;
8458;SDS011;4266;48.816;9.154;2022-11-20T00:19:13;12.93;;;11.43;;
8458;SDS011;4266;48.816;9.154;2022-11-20T00:21:39;14.23;;;11.13;;
8458;SDS011;4266;48.816;9.154;2022-11-20T00:24:05;15.97;;;10.90;;
8458;SDS011;4266;48.816;9.154;2022-11-20T00:26:31;15.30;;;11.97;;
8458;SDS011;4266;48.816;9.154;2022-11-20T00:28:58;19.90;;;12.67;;
8458;SDS011;4266;48.816;9.154;2022-11-20T00:31:23;19.17;;;12.33;;
8458;SDS011;4266;48.816;9.154;2022-11-20T00:33:48;17.93;;;12.07;;
8458;SDS011;4266;48.816;9.154;2022-11-20T00:36:15;14.93;;;12.73;;
8458;SDS011;4266;48.816;9.154;2022-11-20T00:38:41;16.80;;;12.90;;
8458;SDS011;4266;48.816;9.154;2022-11-20T00:41:07;17.43;;;12.37;;
8458;SDS011;4266;48.816;9.154;2022-11-20T00:43:32;16.83;;;12.00;;
8458;SDS011;4266;48.816;9.154;2022-11-20T00:45:58;19.37;;;11.70;;
8458;SDS011;4266;48.816;9.154;2022-11-20T00:48:24;18.23;;;12.53;;
8458;SDS011;4266;48.816;9.154;2022-11-20T00:50:49;18.20;;;12.33;;
8458;SDS011;4266;48.816;9.154;2022-11-20T00:53:15;16.77;;;11.97;;
8458;SDS011;4266;48.816;9.154;2022-11-20T00:55:41;17.33;;;11.77;;
8458;SDS011;4266;48.816;9.154;2022-11-20T00:58:07;12.43;;;11.03;;
8458;SDS011;4266;48.816;9.154;2022-11-20T01:00:32;13.27;;;11.80;;
8458;SDS011;4266;48.816;9.154;2022-11-20T01:02:59;14.23;;;10.10;;
8458;SDS011;4266;48.816;9.154;2022-11-20T01:05:25;13.10;;;10.60;;
8458;SDS011;4266;48.816;9.154;2022-11-20T01:07:51;13.57;;;10.30;;
8458;SDS011;4266;48.816;9.154;2022-11-20T01:10:17;11.07;;;9.87;;
8458;SDS011;4266;48.816;9.154;2022-11-20T01:12:43;11.03;;;9.30;;
8458;SDS011;4266;48.816;9.154;2022-11-20T01:15:09;15.97;;;10.90;;
8458;SDS011;4266;48.816;9.154;2022-11-20T01:17:35;12.93;;;10.43;;
8458;SDS011;4266;48.816;9.154;2022-11-20T01:20:01;11.87;;;9.80;;
8458;SDS011;4266;48.816;9.154;2022-11-20T01:22:27;11.67;;;9.97;;
8458;SDS011;4266;48.816;9.154;2022-11-20T01:24:53;11.13;;;9.93;;
8458;SDS011;4266;48.816;9.154;2022-11-20T01:27:18;10.80;;;9.73;;
8458;SDS011;4266;48.816;9.154;2022-11-20T01:29:44;11.93;;;9.93;;
8458;SDS011;4266;48.816;9.154;2022-11-20T01:32:10;12.23;;;9.67;;
8458;SDS011;4266;48.816;9.154;2022-11-20T01:34:35;11.53;;;10.13;;
8458;SDS011;4266;48.816;9.154;2022-11-20T01:37:01;11.47;;;9.50;;
8458;SDS011;4266;48.816;9.154;2022-11-20T01:39:27;14.90;;;10.03;;
8458;SDS011;4266;48.816;9.154;2022-11-20T01:41:53;12.13;;;10.73;;
8458;SDS011;4266;48.816;9.154;2022-11-20T01:45:42;12.93;;;10.70;;
8458;SDS011;4266;48.816;9.154;2022-11-20T01:47:25;12.23;;;10.17;;
8458;SDS011;4266;48.816;9.154;2022-11-20T01:49:53;12.27;;;10.73;;
8458;SDS011;4266;48.816;9.154;2022-11-20T01:52:19;11.00;;;8.53;;
8458;SDS011;4266;48.816;9.154;2022-11-20T01:54:51;10.03;;;8.63;;
8458;SDS011;4266;48.816;9.154;2022-11-20T01:57:20;8.10;;;7.40;;
8458;SDS011;4266;48.816;9.154;2022-11-20T01:59:49;7.93;;;7.20;;
8458;SDS011;4266;48.816;9.154;2022-11-20T02:02:13;9.27;;;7.83;;
8458;SDS011;4266;48.816;9.154;2022-11-20T02:04:38;7.60;;;6.90;;
8458;SDS011;4266;48.816;9.154;2022-11-20T02:07:04;7.97;;;6.53;;
8458;SDS011;4266;48.816;9.154;2022-11-20T02:09:31;7.33;;;6.63;;
8458;SDS011;4266;48.816;9.154;2022-11-20T02:11:56;7.17;;;6.47;;
8458;SDS011;4266;48.816;9.154;2022-11-20T02:14:22;6.33;;;5.60;;
8458;SDS011;4266;48.816;9.154;2022-11-20T02:16:48;6.43;;;5.83;;
8458;SDS011;4266;48.816;9.154;2022-11-20T02:19:30;6.57;;;5.90;;
8458;SDS011;4266;48.816;9.154;2022-11-20T02:22:28;6.33;;;5.83;;
8458;SDS011;4266;48.816;9.154;2022-11-20T02:24:39;6.10;;;5.50;;
8458;SDS011;4266;48.816;9.154;2022-11-20T02:27:07;6.10;;;5.50;;
8458;SDS011;4266;48.816;9.154;2022-11-20T02:29:37;6.87;;;5.50;;
8458;SDS011;4266;48.816;9.154;2022-11-20T02:32:06;6.00;;;5.50;;
8458;SDS011;4266;48.816;9.154;2022-11-20T02:34:32;5.63;;;5.13;;
8458;SDS011;4266;48.816;9.154;2022-11-20T02:36:58;5.57;;;5.07;;
8458;SDS011;4266;48.816;9.154;2022-11-20T02:39:24;6.20;;;4.60;;
8458;SDS011;4266;48.816;9.154;2022-11-20T02:41:50;5.07;;;4.67;;
8458;SDS011;4266;48.816;9.154;2022-11-20T02:44:15;4.63;;;4.30;;
8458;SDS011;4266;48.816;9.154;2022-11-20T02:46:41;6.13;;;5.57;;
8458;SDS011;4266;48.816;9.154;2022-11-20T02:49:07;5.20;;;4.70;;
8458;SDS011;4266;48.816;9.154;2022-11-20T02:51:33;4.30;;;3.93;;
8458;SDS011;4266;48.816;9.154;2022-11-20T02:53:58;4.70;;;4.40;;
8458;SDS011;4266;48.816;9.154;2022-11-20T02:56:24;3.93;;;3.63;;
8458;SDS011;4266;48.816;9.154;2022-11-20T02:58:50;4.87;;;4.47;;
8458;SDS011;4266;48.816;9.154;2022-11-20T03:01:16;4.40;;;4.10;;
8458;SDS011;4266;48.816;9.154;2022-11-20T03:03:41;7.00;;;4.10;;
8458;SDS011;4266;48.816;9.154;2022-11-20T03:06:07;4.40;;;4.10;;
8458;SDS011;4266;48.816;9.154;2022-11-20T03:08:33;4.13;;;3.83;;
8458;SDS011;4266;48.816;9.154;2022-11-20T03:11:02;4.10;;;3.80;;
8458;SDS011;4266;48.816;9.154;2022-11-20T03:13:27;4.30;;;3.93;;
8458;SDS011;4266;48.816;9.154;2022-11-20T03:15:53;5.00;;;4.60;;
8458;SDS011;4266;48.816;9.154;2022-11-20T03:18:19;4.70;;;4.40;;
8458;SDS011;4266;48.816;9.154;2022-11-20T03:20:44;4.23;;;3.97;;
8458;SDS011;4266;48.816;9.154;2022-11-20T03:23:10;4.70;;;4.37;;
8458;SDS011;4266;48.816;9.154;2022-11-20T03:25:36;5.37;;;4.67;;
8458;SDS011;4266;48.816;9.154;2022-11-20T03:28:01;5.40;;;4.67;;
8458;SDS011;4266;48.816;9.154;2022-11-20T03:30:28;5.10;;;4.70;;
8458;SDS011;4266;48.816;9.154;2022-11-20T03:32:54;4.90;;;4.53;;
8458;SDS011;4266;48.816;9.154;2022-11-20T03:35:20;5.10;;;4.67;;
8458;SDS011;4266;48.816;9.154;2022-11-20T03:37:47;5.60;;;4.70;;
8458;SDS011;4266;48.816;9.154;2022-11-20T03:40:14;4.90;;;4.50;;
8458;SDS011;4266;48.816;9.154;2022-11-20T03:42:40;5.30;;;4.80;;
8458;SDS011;4266;48.816;9.154;2022-11-20T03:45:10;5.07;;;4.60;;
8458;SDS011;4266;48.816;9.154;2022-11-20T03:47:36;5.03;;;4.63;;
8458;SDS011;4266;48.816;9.154;2022-11-20T03:50:02;5.23;;;4.83;;
8458;SDS011;4266;48.816;9.154;2022-11-20T03:52:28;5.37;;;4.97;;
8458;SDS011;4266;48.816;9.154;2022-11-20T03:54:53;5.23;;;4.73;;
8458;SDS011;4266;48.816;9.154;2022-11-20T03:57:19;5.20;;;4.80;;
8458;SDS011;4266;48.816;9.154;2022-11-20T03:59:45;5.27;;;4.80;;
8458;SDS011;4266;48.816;9.154;2022-11-20T04:02:11;5.57;;;5.13;;
8458;SDS011;4266;48.816;9.154;2022-11-20T04:04:36;5.57;;;5.13;;
8458;SDS011;4266;48.816;9.154;2022-11-20T04:07:02;5.20;;;4.80;;
8458;SDS011;4266;48.816;9.154;2022-11-20T04:09:29;5.97;;;5.47;;
8458;SDS011;4266;48.816;9.154;2022-11-20T04:11:54;5.40;;;5.03;;
8458;SDS011;4266;48.816;9.154;2022-11-20T04:14:20;5.30;;;4.90;;
8458;SDS011;4266;48.816;9.154;2022-11-20T04:16:46;4.60;;;4.30;;
8458;SDS011;4266;48.816;9.154;2022-11-20T04:19:12;6.13;;;4.63;;
8458;SDS011;4266;48.816;9.154;2022-11-20T04:21:37;5.27;;;4.87;;
8458;SDS011;4266;48.816;9.154;2022-11-20T04:24:03;5.47;;;5.07;;
8458;SDS011;4266;48.816;9.154;2022-11-20T04:26:30;5.20;;;4.80;;
8458;SDS011;4266;48.816;9.154;2022-11-20T04:28:56;5.13;;;4.63;;
8458;SDS011;4266;48.816;9.154;2022-11-20T04:31:26;4.87;;;4.50;;
8458;SDS011;4266;48.816;9.154;2022-11-20T04:33:50;5.90;;;5.50;;
8458;SDS011;4266;48.816;9.154;2022-11-20T04:36:21;5.60;;;5.20;;
8458;SDS011;4266;48.816;9.154;2022-11-20T04:38:45;5.40;;;4.83;;
8458;SDS011;4266;48.816;9.154;2022-11-20T04:41:14;5.00;;;4.63;;
8458;SDS011;4266;48.816;9.154;2022-11-20T04:43:38;5.40;;;5.00;;
8458;SDS011;4266;48.816;9.154;2022-11-20T04:46:03;5.70;;;5.20;;
8458;SDS011;4266;48.816;9.154;2022-11-20T04:48:30;5.43;;;4.93;;
8458;SDS011;4266;48.816;9.154;2022-11-20T04:50:57;5.17;;;4.83;;
8458;SDS011;4266;48.816;9.154;2022-11-20T04:53:23;6.30;;;4.87;;
8458;SDS011;4266;48.816;9.154;2022-11-20T04:55:49;4.77;;;4.37;;
8458;SDS011;4266;48.816;9.154;2022-11-20T04:58:14;5.33;;;5.03;;
8458;SDS011;4266;48.816;9.154;2022-11-20T05:00:40;4.57;;;4.27;;
8458;SDS011;4266;48.816;9.154;2022-11-20T05:03:06;3.93;;;3.73;;
8458;SDS011;4266;48.816;9.154;2022-11-20T05:05:33;5.80;;;5.40;;
8458;SDS011;4266;48.816;9.154;2022-11-20T05:07:59;5.63;;;4.57;;
8458;SDS011;4266;48.816;9.154;2022-11-20T05:10:25;4.83;;;4.50;;
8458;SDS011;4266;48.816;9.154;2022-11-20T05:12:51;4.90;;;4.60;;
8458;SDS011;4266;48.816;9.154;2022-11-20T05:15:17;4.77;;;4.37;;
8458;SDS011;4266;48.816;9.154;2022-11-20T05:17:48;6.97;;;4.47;;
8458;SDS011;4266;48.816;9.154;2022-11-20T05:20:13;4.47;;;4.17;;
8458;SDS011;4266;48.816;9.154;2022-11-20T05:22:40;4.33;;;4.03;;
8458;SDS011;4266;48.816;9.154;2022-11-20T05:25:06;4.73;;;4.43;;
8458;SDS011;4266;48.816;9.154;2022-11-20T05:27:32;4.90;;;4.30;;
8458;SDS011;4266;48.816;9.154;2022-11-20T05:29:58;4.17;;;3.87;;
8458;SDS011;4266;48.816;9.154;2022-11-20T05:32:24;4.70;;;4.30;;
8458;SDS011;4266;48.816;9.154;2022-11-20T05:34:51;4.83;;;4.43;;
8458;SDS011;4266;48.816;9.154;2022-11-20T05:37:16;4.80;;;4.40;;
8458;SDS011;4266;48.816;9.154;2022-11-20T05:39:42;5.00;;;4.63;;
8458;SDS011;4266;48.816;9.154;2022-11-20T05:42:09;4.40;;;4.10;;
8458;SDS011;4266;48.816;9.154;2022-11-20T05:44:41;4.23;;;3.93;;
8458;SDS011;4266;48.816;9.154;2022-11-20T05:47:06;4.60;;;4.30;;
8458;SDS011;4266;48.816;9.154;2022-11-20T05:49:32;4.53;;;4.23;;
8458;SDS011;4266;48.816;9.154;2022-11-20T05:51:58;5.20;;;4.00;;
8458;SDS011;4266;48.816;9.154;2022-11-20T05:54:23;5.00;;;4.33;;
8458;SDS011;4266;48.816;9.154;2022-11-20T05:56:49;4.30;;;4.00;;
8458;SDS011;4266;48.816;9.154;2022-11-20T05:59:15;4.50;;;4.20;;
8458;SDS011;4266;48.816;9.154;2022-11-20T06:01:41;4.07;;;3.80;;
8458;SDS011;4266;48.816;9.154;2022-11-20T06:04:07;4.07;;;3.77;;
8458;SDS011;4266;48.816;9.154;2022-11-20T06:06:33;4.37;;;4.07;;
8458;SDS011;4266;48.816;9.154;2022-11-20T06:08:58;4.20;;;3.83;;
8458;SDS011;4266;48.816;9.154;2022-11-20T06:11:24;3.83;;;3.60;;
8458;SDS011;4266;48.816;9.154;2022-11-20T06:13:50;4.20;;;3.90;;
8458;SDS011;4266;48.816;9.154;2022-11-20T06:16:17;4.57;;;3.97;;
8458;SDS011;4266;48.816;9.154;2022-11-20T06:18:42;4.00;;;3.80;;
8458;SDS011;4266;48.816;9.154;2022-11-20T06:21:09;3.80;;;3.50;;
8458;SDS011;4266;48.816;9.154;2022-11-20T06:23:34;4.10;;;3.90;;
8458;SDS011;4266;48.816;9.154;2022-11-20T06:26:01;3.97;;;3.77;;
8458;SDS011;4266;48.816;9.154;2022-11-20T06:28:29;3.83;;;3.50;;
8458;SDS011;4266;48.816;9.154;2022-11-20T06:30:55;4.27;;;3.97;;
8458;SDS011;4266;48.816;9.154;2022-11-20T06:33:21;3.53;;;3.27;;
8458;SDS011;4266;48.816;9.154;2022-11-20T06:35:47;3.63;;;3.40;;
8458;SDS011;4266;48.816;9.154;2022-11-20T06:38:12;3.60;;;3.40;;
8458;SDS011;4266;48.816;9.154;2022-11-20T06:40:40;4.07;;;3.77;;
8458;SDS011;4266;48.816;9.154;2022-11-20T06:43:05;4.00;;;3.70;;
8458;SDS011;4266;48.816;9.154;2022-11-20T06:45:30;4.27;;;3.97;;
8458;SDS011;4266;48.816;9.154;2022-11-20T06:47:57;4.13;;;3.73;;
8458;SDS011;4266;48.816;9.154;2022-11-20T06:50:24;4.23;;;3.30;;
8458;SDS011;4266;48.816;9.154;2022-11-20T06:52:49;4.43;;;3.37;;
8458;SDS011;4266;48.816;9.154;2022-11-20T06:55:16;3.67;;;3.37;;
8458;SDS011;4266;48.816;9.154;2022-11-20T06:57:42;4.87;;;3.20;;
8458;SDS011;4266;48.816;9.154;2022-11-20T07:00:08;3.93;;;3.73;;
8458;SDS011;4266;48.816;9.154;2022-11-20T07:02:35;3.67;;;3.10;;
8458;SDS011;4266;48.816;9.154;2022-11-20T07:05:01;3.10;;;2.90;;
8458;SDS011;4266;48.816;9.154;2022-11-20T07:07:27;3.00;;;2.80;;
8458;SDS011;4266;48.816;9.154;2022-11-20T07:09:53;3.40;;;3.20;;
8458;SDS011;4266;48.816;9.154;2022-11-20T07:12:18;2.90;;;2.80;;
8458;SDS011;4266;48.816;9.154;2022-11-20T07:14:44;3.10;;;2.90;;
8458;SDS011;4266;48.816;9.154;2022-11-20T07:17:10;3.30;;;3.00;;
8458;SDS011;4266;48.816;9.154;2022-11-20T07:19:35;3.03;;;2.83;;
8458;SDS011;4266;48.816;9.154;2022-11-20T07:22:01;3.10;;;2.90;;
8458;SDS011;4266;48.816;9.154;2022-11-20T07:24:27;3.10;;;3.00;;
8458;SDS011;4266;48.816;9.154;2022-11-20T07:26:53;2.90;;;2.80;;
8458;SDS011;4266;48.816;9.154;2022-11-20T07:29:18;2.90;;;2.80;;
8458;SDS011;4266;48.816;9.154;2022-11-20T07:31:44;2.80;;;2.70;;
8458;SDS011;4266;48.816;9.154;2022-11-20T07:34:10;3.10;;;2.90;;
8458;SDS011;4266;48.816;9.154;2022-11-20T07:36:35;2.73;;;2.57;;
8458;SDS011;4266;48.816;9.154;2022-11-20T07:39:01;5.33;;;3.50;;
8458;SDS011;4266;48.816;9.154;2022-11-20T07:41:27;2.97;;;2.87;;
8458;SDS011;4266;48.816;9.154;2022-11-20T07:43:53;2.90;;;2.80;;
8458;SDS011;4266;48.816;9.154;2022-11-20T07:46:20;3.53;;;2.70;;
8458;SDS011;4266;48.816;9.154;2022-11-20T07:48:46;3.40;;;3.10;;
8458;SDS011;4266;48.816;9.154;2022-11-20T07:51:11;2.77;;;2.60;;
8458;SDS011;4266;48.816;9.154;2022-11-20T07:53:37;3.37;;;3.10;;
8458;SDS011;4266;48.816;9.154;2022-11-20T07:56:03;3.23;;;3.03;;
8458;SDS011;4266;48.816;9.154;2022-11-20T07:58:30;3.00;;;2.90;;
8458;SDS011;4266;48.816;9.154;2022-11-20T08:00:56;3.13;;;2.93;;
8458;SDS011;4266;48.816;9.154;2022-11-20T08:03:21;3.20;;;3.00;;
8458;SDS011;4266;48.816;9.154;2022-11-20T08:05:48;2.90;;;2.67;;
8458;SDS011;4266;48.816;9.154;2022-11-20T08:08:13;3.40;;;3.10;;
8458;SDS011;4266;48.816;9.154;2022-11-20T08:10:39;3.47;;;3.27;;
8458;SDS011;4266;48.816;9.154;2022-11-20T08:13:05;2.87;;;2.77;;
8458;SDS011;4266;48.816;9.154;2022-11-20T08:15:37;3.10;;;2.90;;
8458;SDS011;4266;48.816;9.154;2022-11-20T08:18:05;3.00;;;2.80;;
8458;SDS011;4266;48.816;9.154;2022-11-20T08:20:31;3.47;;;3.27;;
8458;SDS011;4266;48.816;9.154;2022-11-20T08:22:58;3.00;;;2.80;;
8458;SDS011;4266;48.816;9.154;2022-11-20T08:25:23;3.23;;;2.93;;
8458;SDS011;4266;48.816;9.154;2022-11-20T08:27:48;3.20;;;3.00;;
8458;SDS011;4266;48.816;9.154;2022-11-20T08:30:14;3.03;;;2.83;;
8458;SDS011;4266;48.816;9.154;2022-11-20T08:32:41;3.30;;;3.00;;
8458;SDS011;4266;48.816;9.154;2022-11-20T08:35:07;2.73;;;2.63;;
8458;SDS011;4266;48.816;9.154;2022-11-20T08:37:33;3.60;;;3.40;;
8458;SDS011;4266;48.816;9.154;2022-11-20T08:39:59;3.20;;;3.00;;
8458;SDS011;4266;48.816;9.154;2022-11-20T08:42:25;2.97;;;2.87;;
8458;SDS011;4266;48.816;9.154;2022-11-20T08:44:50;2.13;;;2.03;;
8458;SDS011;4266;48.816;9.154;2022-11-20T08:47:16;2.60;;;2.40;;
8458;SDS011;4266;48.816;9.154;2022-11-20T08:49:42;2.63;;;2.53;;
8458;SDS011;4266;48.816;9.154;2022-11-20T08:52:07;2.37;;;2.27;;
8458;SDS011;4266;48.816;9.154;2022-11-20T08:54:33;2.33;;;2.23;;
8458;SDS011;4266;48.816;9.154;2022-11-20T08:56:59;2.20;;;2.10;;
8458;SDS011;4266;48.816;9.154;2022-11-20T08:59:25;2.23;;;2.13;;
8458;SDS011;4266;48.816;9.154;2022-11-20T09:01:50;2.20;;;2.10;;
8458;SDS011;4266;48.816;9.154;2022-11-20T09:04:17;2.30;;;2.20;;
8458;SDS011;4266;48.816;9.154;2022-11-20T09:06:43;2.87;;;2.77;;
8458;SDS011;4266;48.816;9.154;2022-11-20T09:09:08;2.40;;;2.30;;
8458;SDS011;4266;48.816;9.154;2022-11-20T09:11:35;2.30;;;2.20;;
8458;SDS011;4266;48.816;9.154;2022-11-20T09:14:01;2.40;;;2.20;;
8458;SDS011;4266;48.816;9.154;2022-11-20T09:16:27;2.00;;;1.90;;
8458;SDS011;4266;48.816;9.154;2022-11-20T09:18:53;1.60;;;1.60;;
8458;SDS011;4266;48.816;9.154;2022-11-20T09:21:19;2.00;;;1.90;;
8458;SDS011;4266;48.816;9.154;2022-11-20T09:23:44;2.13;;;2.13;;
8458;SDS011;4266;48.816;9.154;2022-11-20T09:26:11;2.00;;;1.90;;
8458;SDS011;4266;48.816;9.154;2022-11-20T09:28:36;2.37;;;2.27;;
8458;SDS011;4266;48.816;9.154;2022-11-20T09:31:05;2.50;;;2.40;;
8458;SDS011;4266;48.816;9.154;2022-11-20T09:33:31;2.43;;;2.33;;
8458;SDS011;4266;48.816;9.154;2022-11-20T09:35:57;2.00;;;1.90;;
8458;SDS011;4266;48.816;9.154;2022-11-20T09:38:22;2.40;;;2.30;;
8458;SDS011;4266;48.816;9.154;2022-11-20T09:40:52;1.73;;;1.73;;
8458;SDS011;4266;48.816;9.154;2022-11-20T09:43:21;2.03;;;1.93;;
8458;SDS011;4266;48.816;9.154;2022-11-20T09:45:56;2.10;;;2.00;;
8458;SDS011;4266;48.816;9.154;2022-11-20T09:48:32;2.33;;;2.23;;
8458;SDS011;4266;48.816;9.154;2022-11-20T09:51:37;2.27;;;2.17;;
8458;SDS011;4266;48.816;9.154;2022-11-20T09:56:39;2.13;;;2.03;;
8458;SDS011;4266;48.816;9.154;2022-11-20T09:59:06;2.03;;;2.00;;
8458;SDS011;4266;48.816;9.154;2022-11-20T10:01:32;2.40;;;2.30;;
8458;SDS011;4266;48.816;9.154;2022-11-20T10:04:00;2.40;;;2.10;;
8458;SDS011;4266;48.816;9.154;2022-11-20T10:06:31;2.03;;;2.03;;
8458;SDS011;4266;48.816;9.154;2022-11-20T10:11:42;2.73;;;2.53;;
8458;SDS011;4266;48.816;9.154;2022-11-20T10:14:49;3.00;;;2.80;;
8458;SDS011;4266;48.816;9.154;2022-11-20T10:22:34;2.50;;;2.40;;
8458;SDS011;4266;48.816;9.154;2022-11-20T10:27:47;2.83;;;2.70;;
8458;SDS011;4266;48.816;9.154;2022-11-20T10:30:10;2.50;;;2.40;;
8458;SDS011;4266;48.816;9.154;2022-11-20T10:32:39;2.50;;;2.40;;
8458;SDS011;4266;48.816;9.154;2022-11-20T10:36:16;2.80;;;2.70;;
8458;SDS011;4266;48.816;9.154;2022-11-20T10:38:09;2.50;;;2.40;;
8458;SDS011;4266;48.816;9.154;2022-11-20T10:40:37;2.60;;;2.50;;
8458;SDS011;4266;48.816;9.154;2022-11-20T10:43:10;2.97;;;2.77;;
8458;SDS011;4266;48.816;9.154;2022-11-20T10:45:48;3.03;;;2.60;;
8458;SDS011;4266;48.816;9.154;2022-11-20T10:48:27;2.50;;;2.40;;
8458;SDS011;4266;48.816;9.154;2022-11-20T10:51:02;2.63;;;2.43;;
8458;SDS011;4266;48.816;9.154;2022-11-20T10:56:19;2.57;;;2.37;;
8458;SDS011;4266;48.816;9.154;2022-11-20T11:01:39;2.93;;;2.80;;
8458;SDS011;4266;48.816;9.154;2022-11-20T11:04:07;2.73;;;2.53;;
8458;SDS011;4266;48.816;9.154;2022-11-20T11:06:34;2.63;;;2.50;;
8458;SDS011;4266;48.816;9.154;2022-11-20T11:09:01;2.70;;;2.50;;
8458;SDS011;4266;48.816;9.154;2022-11-20T11:11:27;2.60;;;2.40;;
8458;SDS011;4266;48.816;9.154;2022-11-20T11:14:04;2.07;;;1.97;;
8458;SDS011;4266;48.816;9.154;2022-11-20T11:16:26;2.40;;;2.30;;
8458;SDS011;4266;48.816;9.154;2022-11-20T11:19:03;2.30;;;2.20;;
8458;SDS011;4266;48.816;9.154;2022-11-20T11:21:21;2.70;;;2.50;;
8458;SDS011;4266;48.816;9.154;2022-11-20T11:23:56;2.50;;;2.40;;
8458;SDS011;4266;48.816;9.154;2022-11-20T11:26:18;2.70;;;2.60;;
8458;SDS011;4266;48.816;9.154;2022-11-20T11:28:52;2.97;;;2.70;;
8458;SDS011;4266;48.816;9.154;2022-11-20T11:31:09;2.40;;;2.30;;
8458;SDS011;4266;48.816;9.154;2022-11-20T11:33:35;2.60;;;2.50;;
8458;SDS011;4266;48.816;9.154;2022-11-20T11:36:02;2.50;;;2.40;;
8458;SDS011;4266;48.816;9.154;2022-11-20T11:38:29;2.65;;;2.45;;
8458;SDS011;4266;48.816;9.154;2022-11-20T11:41:13;3.08;;;2.40;;
8458;SDS011;4266;48.816;9.154;2022-11-20T11:43:37;2.30;;;2.20;;
8458;SDS011;4266;48.816;9.154;2022-11-20T11:48:58;2.33;;;2.20;;
8458;SDS011;4266;48.816;9.154;2022-11-20T11:51:25;1.98;;;1.87;;
8458;SDS011;4266;48.816;9.154;2022-11-20T11:53:50;3.60;;;2.03;;
8458;SDS011;4266;48.816;9.154;2022-11-20T11:56:15;3.60;;;2.00;;
8458;SDS011;4266;48.816;9.154;2022-11-20T11:58:45;2.08;;;1.92;;
8458;SDS011;4266;48.816;9.154;2022-11-20T12:01:34;2.70;;;2.50;;
8458;SDS011;4266;48.816;9.154;2022-11-20T12:04:02;2.75;;;2.55;;
8458;SDS011;4266;48.816;9.154;2022-11-20T12:06:29;2.00;;;1.90;;
8458;SDS011;4266;48.816;9.154;2022-11-20T12:08:57;2.50;;;2.30;;
8458;SDS011;4266;48.816;9.154;2022-11-20T12:11:32;2.70;;;2.50;;
8458;SDS011;4266;48.816;9.154;2022-11-20T12:14:09;2.97;;;2.45;;
8458;SDS011;4266;48.816;9.154;2022-11-20T12:16:49;4.72;;;2.10;;
8458;SDS011;4266;48.816;9.154;2022-11-20T12:19:16;2.87;;;2.00;;
8458;SDS011;4266;48.816;9.154;2022-11-20T12:21:46;1.90;;;1.80;;
8458;SDS011;4266;48.816;9.154;2022-11-20T12:24:58;3.08;;;1.50;;
8458;SDS011;4266;48.816;9.154;2022-11-20T12:30:06;2.40;;;2.03;;
8458;SDS011;4266;48.816;9.154;2022-11-20T12:32:57;2.30;;;2.20;;
8458;SDS011;4266;48.816;9.154;2022-11-20T12:38:31;1.90;;;1.80;;
8458;SDS011;4266;48.816;9.154;2022-11-20T12:43:35;2.28;;;1.92;;
8458;SDS011;4266;48.816;9.154;2022-11-20T12:46:17;1.90;;;1.80;;
8458;SDS011;4266;48.816;9.154;2022-11-20T12:51:51;2.87;;;1.83;;
8458;SDS011;4266;48.816;9.154;2022-11-20T12:54:34;1.70;;;1.60;;
8458;SDS011;4266;48.816;9.154;2022-11-20T12:57:03;1.90;;;1.80;;
8458;SDS011;4266;48.816;9.154;2022-11-20T12:59:46;2.37;;;1.80;;
8458;SDS011;4266;48.816;9.154;2022-11-20T13:02:23;4.28;;;1.65;;
8458;SDS011;4266;48.816;9.154;2022-11-20T13:04:53;2.20;;;2.10;;
8458;SDS011;4266;48.816;9.154;2022-11-20T13:07:33;1.73;;;1.52;;
8458;SDS011;4266;48.816;9.154;2022-11-20T13:09:59;3.00;;;1.65;;
8458;SDS011;4266;48.816;9.154;2022-11-20T13:15:07;1.70;;;1.60;;
8458;SDS011;4266;48.816;9.154;2022-11-20T13:17:47;2.60;;;2.40;;
8458;SDS011;4266;48.816;9.154;2022-11-20T13:20:13;1.80;;;1.70;;
8458;SDS011;4266;48.816;9.154;2022-11-20T13:22:45;2.40;;;2.20;;
8458;SDS011;4266;48.816;9.154;2022-11-20T13:25:22;2.03;;;1.92;;
8458;SDS011;4266;48.816;9.154;2022-11-20T13:27:49;2.20;;;1.98;;
8458;SDS011;4266;48.816;9.154;2022-11-20T13:30:16;2.15;;;2.00;;
8458;SDS011;4266;48.816;9.154;2022-11-20T13:35:24;1.73;;;1.62;;
8458;SDS011;4266;48.816;9.154;2022-11-20T13:37:41;2.97;;;2.00;;
8458;SDS011;4266;48.816;9.154;2022-11-20T13:40:12;1.80;;;1.70;;
8458;SDS011;4266;48.816;9.154;2022-11-20T13:42:40;2.60;;;2.40;;
8458;SDS011;4266;48.816;9.154;2022-11-20T13:45:38;2.30;;;1.80;;
8458;SDS011;4266;48.816;9.154;2022-11-20T13:47:47;2.13;;;1.80;;
8458;SDS011;4266;48.816;9.154;2022-11-20T13:50:13;1.93;;;1.80;;
8458;SDS011;4266;48.816;9.154;2022-11-20T13:52:39;5.40;;;2.20;;
8458;SDS011;4266;48.816;9.154;2022-11-20T13:55:15;1.90;;;1.80;;
8458;SDS011;4266;48.816;9.154;2022-11-20T13:57:52;2.73;;;2.20;;
8458;SDS011;4266;48.816;9.154;2022-11-20T14:00:20;2.67;;;2.50;;
8458;SDS011;4266;48.816;9.154;2022-11-20T14:02:50;2.30;;;2.20;;
8458;SDS011;4266;48.816;9.154;2022-11-20T14:05:22;2.10;;;2.00;;
8458;SDS011;4266;48.816;9.154;2022-11-20T14:07:49;2.90;;;2.17;;
8458;SDS011;4266;48.816;9.154;2022-11-20T14:10:21;2.57;;;2.00;;
8458;SDS011;4266;48.816;9.154;2022-11-20T14:12:49;2.10;;;2.00;;
8458;SDS011;4266;48.816;9.154;2022-11-20T14:17:48;2.33;;;2.13;;
8458;SDS011;4266;48.816;9.154;2022-11-20T14:20:15;2.30;;;2.20;;
8458;SDS011;4266;48.816;9.154;2022-11-20T14:22:48;2.73;;;2.53;;
8458;SDS011;4266;48.816;9.154;2022-11-20T14:25:20;2.60;;;2.40;;
8458;SDS011;4266;48.816;9.154;2022-11-20T14:27:50;2.83;;;2.67;;
8458;SDS011;4266;48.816;9.154;2022-11-20T14:30:15;2.50;;;2.40;;
8458;SDS011;4266;48.816;9.154;2022-11-20T14:32:42;3.07;;;2.87;;
8458;SDS011;4266;48.816;9.154;2022-11-20T14:35:08;2.73;;;2.20;;
8458;SDS011;4266;48.816;9.154;2022-11-20T14:37:35;2.40;;;2.30;;
8458;SDS011;4266;48.816;9.154;2022-11-20T14:39:59;2.83;;;2.57;;
8458;SDS011;4266;48.816;9.154;2022-11-20T14:42:26;2.93;;;2.67;;
8458;SDS011;4266;48.816;9.154;2022-11-20T14:44:54;2.60;;;2.50;;
8458;SDS011;4266;48.816;9.154;2022-11-20T14:47:20;3.17;;;2.93;;
8458;SDS011;4266;48.816;9.154;2022-11-20T14:49:45;3.10;;;2.87;;
8458;SDS011;4266;48.816;9.154;2022-11-20T14:52:13;6.57;;;2.87;;
8458;SDS011;4266;48.816;9.154;2022-11-20T14:54:43;3.00;;;2.80;;
8458;SDS011;4266;48.816;9.154;2022-11-20T14:57:19;3.37;;;3.13;;
8458;SDS011;4266;48.816;9.154;2022-11-20T14:59:34;3.30;;;3.00;;
8458;SDS011;4266;48.816;9.154;2022-11-20T15:02:02;3.20;;;2.93;;
8458;SDS011;4266;48.816;9.154;2022-11-20T15:04:26;5.03;;;3.33;;
8458;SDS011;4266;48.816;9.154;2022-11-20T15:06:53;3.07;;;2.77;;
8458;SDS011;4266;48.816;9.154;2022-11-20T15:09:19;3.97;;;2.93;;
8458;SDS011;4266;48.816;9.154;2022-11-20T15:14:17;3.03;;;2.83;;
8458;SDS011;4266;48.816;9.154;2022-11-20T15:16:43;3.60;;;3.30;;
8458;SDS011;4266;48.816;9.154;2022-11-20T15:19:15;2.97;;;2.70;;
8458;SDS011;4266;48.816;9.154;2022-11-20T15:21:35;3.00;;;2.80;;
8458;SDS011;4266;48.816;9.154;2022-11-20T15:24:01;3.90;;;2.90;;
8458;SDS011;4266;48.816;9.154;2022-11-20T15:26:26;3.30;;;3.10;;
8458;SDS011;4266;48.816;9.154;2022-11-20T15:28:52;2.90;;;2.80;;
8458;SDS011;4266;48.816;9.154;2022-11-20T15:31:20;3.50;;;3.30;;
8458;SDS011;4266;48.816;9.154;2022-11-20T15:33:45;3.70;;;3.47;;
8458;SDS011;4266;48.816;9.154;2022-11-20T15:36:12;3.30;;;3.10;;
8458;SDS011;4266;48.816;9.154;2022-11-20T15:38:37;4.40;;;3.50;;
8458;SDS011;4266;48.816;9.154;2022-11-20T15:41:03;3.90;;;3.60;;
8458;SDS011;4266;48.816;9.154;2022-11-20T15:43:29;4.40;;;3.40;;
8458;SDS011;4266;48.816;9.154;2022-11-20T15:45:56;3.70;;;3.40;;
8458;SDS011;4266;48.816;9.154;2022-11-20T15:48:21;3.40;;;3.20;;
8458;SDS011;4266;48.816;9.154;2022-11-20T15:50:54;3.57;;;3.17;;
8458;SDS011;4266;48.816;9.154;2022-11-20T15:53:22;3.13;;;2.93;;
8458;SDS011;4266;48.816;9.154;2022-11-20T15:55:47;4.20;;;3.90;;
8458;SDS011;4266;48.816;9.154;2022-11-20T15:58:13;4.63;;;3.97;;
8458;SDS011;4266;48.816;9.154;2022-11-20T16:00:40;4.27;;;3.97;;